createdAt,value
2018-09-26T00:07:50.198Z,2
2018-09-26T00:27:50.023Z,2.1
2018-09-26T00:57:49.903Z,2
2018-09-26T01:12:51.895Z,1.8
2018-09-26T01:33:03.575Z,2
2018-09-26T01:48:03.569Z,1.7
2018-09-26T02:03:15.176Z,1.8
2018-09-26T02:18:14.903Z,1.7
2018-09-26T02:38:15.624Z,2.1
2018-09-26T02:53:27.675Z,2.5
2018-09-26T03:08:27.535Z,2
2018-09-26T03:28:27.707Z,2.7
2018-09-26T03:43:27.715Z,1.9
2018-09-26T03:58:40.995Z,2.4
2018-09-26T04:13:40.934Z,3.1
2018-09-26T04:33:41.774Z,2.1
2018-09-26T04:48:53.107Z,3.6
2018-09-26T05:03:53.348Z,2.5
2018-09-26T05:18:53.329Z,2.9
2018-09-26T05:38:53.349Z,3.7
2018-09-26T05:54:05.124Z,2.3
2018-09-26T06:09:04.978Z,3.4
2018-09-26T06:29:05.228Z,3.5
2018-09-26T06:59:17.816Z,4
2018-09-26T07:34:17.668Z,3.3
2018-09-26T07:49:31.211Z,2.4
2018-09-26T08:04:31.150Z,3.4
2018-09-26T08:39:46.099Z,2.6
2018-09-26T09:09:47.494Z,2.7
2018-09-26T09:29:59.694Z,2.6
2018-09-26T09:44:59.458Z,2.4
2018-09-26T09:59:59.650Z,2.5
2018-09-26T10:15:11.380Z,1.9
2018-09-26T10:35:11.339Z,2.5
2018-09-26T10:50:24.823Z,2.7
2018-09-26T11:05:23.996Z,2.2
2018-09-26T11:40:40.433Z,2.5
2018-09-26T11:55:39.055Z,2.7
2018-09-26T12:10:38.859Z,2
2018-09-26T12:30:39.116Z,2.2
2018-09-26T12:45:50.683Z,2.4
2018-09-26T13:00:50.362Z,2.6
2018-09-26T13:20:50.916Z,2.4
2018-09-26T13:36:02.675Z,3.9
2018-09-26T13:51:02.580Z,1.8
2018-09-26T14:06:02.547Z,2.7
2018-09-26T14:41:15.597Z,3.1
2018-09-26T14:56:15.574Z,3.3
2018-09-26T15:31:27.249Z,3.1
2018-09-26T16:01:30.327Z,2.9
2018-09-26T16:21:39.863Z,2.7
2018-09-26T16:36:39.704Z,2.8
2018-09-26T16:51:39.857Z,2.8
2018-09-26T17:26:51.745Z,3
2018-09-26T17:42:05.821Z,3.2
2018-09-26T17:57:05.352Z,3.4
2018-09-26T18:32:17.365Z,5.4
2018-09-26T19:07:18.100Z,5.1
2018-09-26T19:22:30.665Z,4.7
2018-09-26T19:52:31.939Z,5.1
2018-09-26T20:12:42.355Z,5.1
2018-09-26T20:42:54.042Z,3.8
2018-09-26T20:57:53.918Z,4.5
2018-09-26T21:17:54.796Z,4.1
2018-09-26T21:33:07.060Z,3.6
2018-09-26T21:48:06.786Z,4.4
2018-09-26T22:08:06.795Z,3.2
2018-09-26T22:53:21.071Z,4.3
2018-09-26T23:13:23.020Z,3.4
2018-09-26T23:28:33.322Z,3.4
2018-09-26T23:43:33.290Z,3.4
